Pagrindinis puslapis
METAR-TAF:

METAR-TAF

Oro uostai :

Ängelholm–Helsingborg

Helsingborgas, Švedija

platuma: 56-17-46N, ilguma: 012-50-50E, Aukštis: 21 m

Dabartinis oras

Ataskaita buvo paskelbta 35 minutes, ne 12:20 UTC
Vėjas 14 kt iš Šiaurės Vakarų
Temperatūra 5°C
Drėgmė 87%
Slėgis 1004 hPa
Matomumas 10 km arba daugiau
Su prošvaistėmis ne aukštis 1000 ft

METAR: ESTA 191220Z 31014KT 9999 BKN010 05/03 Q1004

Laikas: 13:55 (12:55 UTC)

Prognozė

Ataskaita buvo paskelbta 1 valandą ir 47 minutes, ne 11:08 UTC
Prognozė galioja nuo 19 metu 12 UTC su 19 metu 21 UTC
Vėjas 10 kt iš Vakarų/Šiaurės Vakarų
Matomumas 10 km arba daugiau
Išsisklaidę debesys ne aukštis 2000 ft
Laikinai
nuo 19 metu 12 UTC su 19 metu 14 UTC
Su prošvaistėmis ne aukštis 1200 ft
Išsisklaidę debesys ne aukštis 2000 ft, Liūtiniai kamuoliniai debesys.
lietus

TAF: ESTA 191108Z 1912/1921 29010KT 9999 SCT020 TEMPO 1912/1914 SHRA BKN012 SCT020CB

Orai ataskaitas ir orų prognozės (METAR, TAF).

turimą stotys yra geltonos ir raudonos taškus žemėlapyje.

Perkelti pele per norėdami pamatyti stoties vardą.

Tada spustelėkite, norėdami matyti oro stebėjimo ir prognozės.

Norėdami pakeisti žemėlapį: spustelėkite ant žalios mygtukų su juodo kryžiaus žemyn,; žalią mygtuką su brūkšneliu, jei norite nutolinti; arba žalių rodyklių gretimoms žemėlapius.


METAR-TAF: